createdAt,value
2024-04-18T00:04:25.211Z,0.80
2024-04-18T00:09:31.219Z,0.95
2024-04-18T00:14:34.380Z,0.90
2024-04-18T00:19:37.502Z,0.70
2024-04-18T00:24:43.381Z,1.00
2024-04-18T00:29:46.686Z,0.80
2024-04-18T00:34:49.713Z,0.90
2024-04-18T00:39:55.687Z,0.75
2024-04-18T00:44:58.991Z,0.93
2024-04-18T00:50:02.420Z,1.15
2024-04-18T00:55:09.523Z,1.00
2024-04-18T01:00:14.472Z,0.90
2024-04-18T01:05:17.850Z,0.95
2024-04-18T01:10:23.877Z,0.80
2024-04-18T01:15:27.708Z,0.73
2024-04-18T01:20:30.922Z,0.80
2024-04-18T01:25:36.996Z,0.70
2024-04-18T01:30:44.507Z,0.65
2024-04-18T01:35:47.695Z,0.55
2024-04-18T01:40:50.792Z,0.80
2024-04-18T01:45:56.760Z,0.82
2024-04-18T01:50:59.884Z,0.70
2024-04-18T01:56:03.008Z,0.70
2024-04-18T02:01:09.104Z,1.02
2024-04-18T02:06:12.230Z,0.80
2024-04-18T02:11:15.445Z,0.80
2024-04-18T02:16:21.423Z,0.55
2024-04-18T02:21:24.610Z,0.70
2024-04-18T02:26:27.799Z,0.77
2024-04-18T02:31:33.800Z,0.73
2024-04-18T02:36:36.912Z,0.80
2024-04-18T02:41:40.040Z,0.65
2024-04-18T02:46:45.927Z,0.60
2024-04-18T02:51:49.076Z,0.60
2024-04-18T02:56:52.188Z,0.90
2024-04-18T03:01:58.175Z,1.25
2024-04-18T03:07:01.231Z,1.40
2024-04-18T03:12:04.614Z,0.93
2024-04-18T03:17:10.869Z,1.15
2024-04-18T03:22:14.032Z,1.10
2024-04-18T03:27:17.163Z,1.15
2024-04-18T03:32:23.560Z,2.00
2024-04-18T03:37:26.843Z,2.20
2024-04-18T03:42:29.879Z,2.67
2024-04-18T03:47:35.914Z,2.08
2024-04-18T03:52:39.626Z,1.60
2024-04-18T03:57:42.781Z,1.58
2024-04-18T04:02:48.678Z,0.90
2024-04-18T04:07:52.033Z,0.80
2024-04-18T04:12:55.200Z,0.70
2024-04-18T04:18:01.236Z,0.70
2024-04-18T04:23:04.522Z,0.60
2024-04-18T04:28:07.856Z,0.80
2024-04-18T04:33:14.021Z,0.70
2024-04-18T04:38:17.118Z,0.70
2024-04-18T04:43:20.202Z,0.60
2024-04-18T04:48:26.193Z,0.80
2024-04-18T04:53:29.649Z,0.57
2024-04-18T04:58:33.931Z,0.50
2024-04-18T05:06:19.014Z,1.20
2024-04-18T05:11:22.159Z,0.90
2024-04-18T05:16:26.427Z,0.80
2024-04-18T05:21:32.556Z,0.80
2024-04-18T05:26:36.516Z,0.55
2024-04-18T05:31:41.918Z,0.52
2024-04-18T05:36:48.368Z,0.70
2024-04-18T05:41:51.449Z,1.17
2024-04-18T05:46:54.635Z,1.83
2024-04-18T05:52:00.610Z,2.28
2024-04-18T05:57:03.814Z,2.30
2024-04-18T06:02:09.281Z,1.60
2024-04-18T06:07:16.750Z,1.70
2024-04-18T06:12:19.936Z,1.10
2024-04-18T06:17:23.041Z,1.30
2024-04-18T06:22:29.046Z,1.42
2024-04-18T06:27:32.180Z,1.27
2024-04-18T06:32:35.343Z,1.45
2024-04-18T06:37:41.259Z,1.55
2024-04-18T06:42:44.389Z,2.25
2024-04-18T06:47:47.722Z,1.05
2024-04-18T06:52:53.829Z,1.90
2024-04-18T06:57:56.981Z,1.10
2024-04-18T07:03:00.228Z,0.80
2024-04-18T07:08:06.703Z,0.90
2024-04-18T07:13:09.847Z,1.15
2024-04-18T07:18:13.105Z,0.90
2024-04-18T07:23:19.245Z,0.90
2024-04-18T07:28:22.570Z,0.90
2024-04-18T07:33:26.153Z,1.10
2024-04-18T07:38:32.138Z,0.73
2024-04-18T07:43:35.250Z,1.15
2024-04-18T07:48:38.470Z,1.30
2024-04-18T07:53:44.427Z,1.30
2024-04-18T07:58:47.920Z,1.15
2024-04-18T08:04:02.610Z,1.10
2024-04-18T08:09:44.524Z,1.30
2024-04-18T08:14:53.124Z,1.00
2024-04-18T08:19:58.441Z,1.10
2024-04-18T08:25:04.637Z,1.10
2024-04-18T08:30:08.698Z,0.77
2024-04-18T08:35:11.792Z,0.75
2024-04-18T08:40:17.985Z,0.82
2024-04-18T08:45:26.481Z,0.90
2024-04-18T08:50:32.297Z,0.50
2024-04-18T08:55:44.104Z,0.60
2024-04-18T09:00:47.396Z,0.70
2024-04-18T09:05:50.774Z,0.60
2024-04-18T09:10:56.876Z,0.55
2024-04-18T09:16:00.258Z,0.38
2024-04-18T09:21:03.762Z,0.60
2024-04-18T09:26:09.638Z,0.32
2024-04-18T09:31:17.012Z,0.40
2024-04-18T09:36:24.689Z,0.30
2024-04-18T09:41:35.010Z,0.20
2024-04-18T09:46:38.629Z,0.40
2024-04-18T09:51:42.257Z,0.30
2024-04-18T09:56:49.347Z,0.40
2024-04-18T10:01:53.559Z,0.40
2024-04-18T10:06:58.231Z,0.30
2024-04-18T10:12:07.026Z,0.47
2024-04-18T10:17:23.387Z,0.43
2024-04-18T10:22:36.317Z,0.47
2024-04-18T10:27:50.668Z,0.60
2024-04-18T10:32:54.680Z,0.60
2024-04-18T10:37:57.830Z,0.60
2024-04-18T10:43:15.805Z,0.50
2024-04-18T10:48:20.924Z,0.40
2024-04-18T10:53:24.382Z,0.68
2024-04-18T10:58:30.531Z,0.50
2024-04-18T11:03:34.309Z,0.50
2024-04-18T11:08:37.485Z,0.60
2024-04-18T11:13:43.743Z,0.22
2024-04-18T11:18:47.115Z,0.60
2024-04-18T11:23:52.943Z,0.60
2024-04-18T11:28:59.250Z,0.50
2024-04-18T11:34:02.609Z,0.60
2024-04-18T11:39:05.848Z,0.50
2024-04-18T11:44:11.981Z,0.47
2024-04-18T11:49:18.108Z,0.30
2024-04-18T11:54:21.310Z,0.70
2024-04-18T11:59:27.238Z,0.75
2024-04-18T12:04:30.331Z,0.55
2024-04-18T12:09:33.570Z,0.80
2024-04-18T12:14:39.821Z,0.80
2024-04-18T12:19:44.691Z,0.70
2024-04-18T12:24:48.200Z,0.82
2024-04-18T12:29:54.150Z,1.08
2024-04-18T12:34:57.463Z,0.60
2024-04-18T12:40:00.559Z,1.40
2024-04-18T12:45:07.714Z,0.90
2024-04-18T12:50:11.212Z,0.70
2024-04-18T12:55:14.510Z,0.80
2024-04-18T13:00:20.533Z,0.65
2024-04-18T13:05:23.855Z,0.90
2024-04-18T13:10:26.941Z,0.50
2024-04-18T13:15:33.345Z,0.80
2024-04-18T13:20:36.489Z,0.60
2024-04-18T13:25:39.626Z,0.65
2024-04-18T13:30:45.644Z,0.60
2024-04-18T13:35:56.241Z,0.50
2024-04-18T13:40:59.597Z,0.73
2024-04-18T13:46:05.800Z,0.65
2024-04-18T13:51:08.983Z,0.90
2024-04-18T13:56:12.174Z,0.70
2024-04-18T14:01:18.230Z,0.70
2024-04-18T14:06:21.402Z,0.80
2024-04-18T14:11:24.671Z,0.70
2024-04-18T14:16:31.061Z,0.90
2024-04-18T14:21:35.435Z,1.00
2024-04-18T14:26:38.841Z,0.90
2024-04-18T14:31:44.749Z,1.02
2024-04-18T14:36:47.950Z,0.93
2024-04-18T14:41:51.060Z,1.08
2024-04-18T14:46:57.028Z,0.90
2024-04-18T14:52:00.139Z,1.30
2024-04-18T14:57:03.472Z,0.80
2024-04-18T15:02:09.441Z,1.00
2024-04-18T15:07:12.534Z,0.88
2024-04-18T15:12:15.728Z,0.80
2024-04-18T15:17:22.019Z,0.77
2024-04-18T15:22:25.800Z,0.77
2024-04-18T15:27:30.934Z,0.60
2024-04-18T15:32:37.544Z,0.73
2024-04-18T15:37:40.687Z,0.70
2024-04-18T15:42:43.901Z,0.68
2024-04-18T15:47:49.905Z,0.80
2024-04-18T15:52:53.025Z,0.63
2024-04-18T15:57:56.410Z,0.73
2024-04-18T16:03:02.344Z,0.60
2024-04-18T16:08:06.017Z,0.60
2024-04-18T16:13:09.380Z,0.50
2024-04-18T16:18:15.699Z,0.40
2024-04-18T16:23:18.821Z,0.30
2024-04-18T16:28:22.228Z,0.30
2024-04-18T16:33:28.154Z,0.20
2024-04-18T16:38:31.249Z,0.22
2024-04-18T16:43:37.967Z,0.20
2024-04-18T16:48:44.713Z,0.22
2024-04-18T16:53:47.849Z,0.17
2024-04-18T16:58:51.580Z,0.10
2024-04-18T17:03:57.695Z,0.10
2024-04-18T17:09:00.913Z,0.20
2024-04-18T17:14:04.031Z,0.20
2024-04-18T17:19:10.432Z,0.10
2024-04-18T17:24:15.895Z,0.20
2024-04-18T17:29:19.003Z,0.10
2024-04-18T17:34:25.933Z,0.20
2024-04-18T17:39:29.167Z,0.10
2024-04-18T17:44:32.313Z,0.08
2024-04-18T17:49:38.362Z,0.00
2024-04-18T17:54:41.541Z,0.10
2024-04-18T17:59:44.728Z,0.17
2024-04-18T18:04:50.639Z,0.10
2024-04-18T18:09:53.806Z,0.13
2024-04-18T18:14:56.916Z,0.15
2024-04-18T18:20:03.352Z,0.10
2024-04-18T18:25:07.141Z,0.20
2024-04-18T18:30:13.716Z,0.10
2024-04-18T18:35:19.749Z,0.20
2024-04-18T18:40:22.896Z,0.20
2024-04-18T18:45:26.019Z,0.10
2024-04-18T18:50:31.916Z,0.10
2024-04-18T18:55:34.973Z,0.20
2024-04-18T19:00:38.294Z,0.17
2024-04-18T19:05:49.552Z,0.00
2024-04-18T19:10:52.647Z,0.10
2024-04-18T19:15:56.133Z,0.13
2024-04-18T19:21:02.826Z,0.10
2024-04-18T19:26:06.342Z,0.20
2024-04-18T19:31:10.678Z,0.10
2024-04-18T19:36:16.764Z,0.20
2024-04-18T19:41:20.189Z,0.20
2024-04-18T19:46:23.504Z,0.20
2024-04-18T19:51:29.481Z,0.20
2024-04-18T19:56:32.581Z,0.20
2024-04-18T20:01:35.753Z,0.10
2024-04-18T20:06:41.669Z,0.15
2024-04-18T20:11:44.893Z,0.10
2024-04-18T20:16:48.068Z,0.10
2024-04-18T20:21:54.315Z,0.10
2024-04-18T20:26:57.421Z,0.10
2024-04-18T20:32:00.538Z,0.10
2024-04-18T20:37:06.433Z,0.10
2024-04-18T20:42:09.550Z,0.10
2024-04-18T20:47:12.704Z,0.10
2024-04-18T20:52:18.625Z,0.10
2024-04-18T20:57:32.945Z,0.25
2024-04-18T21:02:36.060Z,0.20
2024-04-18T21:07:41.986Z,0.20
2024-04-18T21:12:45.349Z,0.10
2024-04-18T21:17:48.527Z,0.40
2024-04-18T21:22:54.639Z,0.10
2024-04-18T21:27:57.866Z,0.30
2024-04-18T21:33:01.235Z,0.20
2024-04-18T21:38:07.212Z,0.40
2024-04-18T21:43:10.447Z,0.15
2024-04-18T21:48:13.674Z,0.20
2024-04-18T21:53:19.731Z,0.15
2024-04-18T21:58:22.913Z,0.20
2024-04-18T22:03:26.246Z,0.25
2024-04-18T22:08:32.144Z,0.13
2024-04-18T22:13:35.308Z,0.20
2024-04-18T22:18:38.566Z,0.08
2024-04-18T22:23:45.251Z,0.10
2024-04-18T22:28:48.910Z,0.10
2024-04-18T22:33:52.232Z,0.20
2024-04-18T22:38:58.593Z,0.28
2024-04-18T22:44:01.917Z,0.22
2024-04-18T22:49:05.073Z,0.15
2024-04-18T22:54:11.039Z,0.10
2024-04-18T22:59:14.177Z,0.28
2024-04-18T23:04:17.280Z,0.20
2024-04-18T23:09:23.261Z,0.20
2024-04-18T23:14:26.520Z,0.20
2024-04-18T23:19:29.580Z,0.20
2024-04-18T23:24:35.955Z,0.25
2024-04-18T23:29:39.033Z,0.20
2024-04-18T23:34:42.163Z,0.35
2024-04-18T23:39:48.381Z,0.28
2024-04-18T23:44:51.534Z,0.20
2024-04-18T23:49:54.663Z,0.20
2024-04-18T23:55:00.529Z,0.20
